UNO21 GMMH-GCLP
Flight info
| Callsign | UNO21 |
|---|---|
| Flight time | 0h 32m |
| Altitude | 13000 |
| Route | DKH M660 ROTUM/N0250F160 DCT DEREV N729 REMGI |
| Aircraft | C160/M-SDFGHIRTUY/S |
Departure
| Time | 2026-04-20 13:06 |
|---|---|
| Airport | Dakhla Airport (GMMH) |
Arrival
| Time | 2026-04-20 13:38 |
|---|---|
| Airport | Gran Canaria Airport (GCLP) |
| Time | Latitude | Longitude | Altitude | Speed | Heading |
|---|---|---|---|---|---|
| 2026-04-20 12:49 | 23.71398 | -15.92946 | 34 ft | 0 kts | 307° |
| 2026-04-20 13:01 | 23.71402 | -15.92949 | 34 ft | 0 kts | 327° |
| 2026-04-20 13:02 | 23.71409 | -15.92953 | 34 ft | 2 kts | 337° |
| 2026-04-20 13:02 | 23.71426 | -15.92960 | 36 ft | 1 kts | 337° |
| 2026-04-20 13:02 | 23.71496 | -15.93059 | 36 ft | 23 kts | 293° |
| 2026-04-20 13:03 | 23.71455 | -15.93172 | 36 ft | 18 kts | 202° |
| 2026-04-20 13:03 | 23.71314 | -15.93234 | 36 ft | 25 kts | 202° |
| 2026-04-20 13:03 | 23.71134 | -15.93315 | 36 ft | 31 kts | 202° |
| 2026-04-20 13:03 | 23.70922 | -15.93415 | 38 ft | 36 kts | 202° |
| 2026-04-20 13:04 | 23.70693 | -15.93518 | 36 ft | 36 kts | 202° |
| 2026-04-20 13:04 | 23.70554 | -15.93595 | 38 ft | 15 kts | 244° |
| 2026-04-20 13:04 | 23.70558 | -15.93652 | 38 ft | 0 kts | 292° |
| 2026-04-20 13:05 | 23.70570 | -15.93684 | 36 ft | 20 kts | 292° |
| 2026-04-20 13:05 | 23.70706 | -15.93710 | 36 ft | 41 kts | 22° |
| 2026-04-20 13:05 | 23.71186 | -15.93493 | 36 ft | 103 kts | 22° |
| 2026-04-20 13:06 | 23.71963 | -15.93132 | 119 ft | 133 kts | 21° |
| 2026-04-20 13:06 | 23.72863 | -15.92689 | 428 ft | 149 kts | 22° |
| 2026-04-20 13:06 | 23.73873 | -15.92187 | 879 ft | 173 kts | 22° |
| 2026-04-20 13:06 | 23.75044 | -15.91559 | 1318 ft | 200 kts | 23° |
| 2026-04-20 13:07 | 23.76347 | -15.90891 | 1852 ft | 213 kts | 22° |
| 2026-04-20 13:07 | 23.77737 | -15.90173 | 2356 ft | 226 kts | 24° |
| 2026-04-20 13:07 | 23.79172 | -15.89387 | 2801 ft | 237 kts | 25° |
| 2026-04-20 13:07 | 23.80700 | -15.88634 | 3241 ft | 245 kts | 24° |
| 2026-04-20 13:08 | 23.82353 | -15.88173 | 3810 ft | 245 kts | 3° |
| 2026-04-20 13:08 | 23.84089 | -15.88167 | 4237 ft | 252 kts | 356° |
| 2026-04-20 13:08 | 23.85858 | -15.88182 | 4728 ft | 256 kts | 356° |
| 2026-04-20 13:08 | 23.87656 | -15.88163 | 5209 ft | 260 kts | 356° |
| 2026-04-20 13:09 | 23.89476 | -15.88141 | 5695 ft | 264 kts | 356° |
| 2026-04-20 13:09 | 23.91322 | -15.88105 | 6180 ft | 267 kts | 355° |
| 2026-04-20 13:09 | 23.93173 | -15.88043 | 6645 ft | 271 kts | 356° |
| 2026-04-20 13:09 | 23.95063 | -15.87978 | 7112 ft | 273 kts | 356° |
| 2026-04-20 13:10 | 23.96981 | -15.87912 | 7595 ft | 276 kts | 356° |
| 2026-04-20 13:10 | 23.98907 | -15.87848 | 8079 ft | 277 kts | 356° |
| 2026-04-20 13:10 | 24.00844 | -15.87789 | 8571 ft | 279 kts | 356° |
| 2026-04-20 13:10 | 24.02792 | -15.87735 | 9070 ft | 281 kts | 356° |
| 2026-04-20 13:11 | 24.04750 | -15.87684 | 9575 ft | 282 kts | 356° |
| 2026-04-20 13:11 | 24.06716 | -15.87636 | 10060 ft | 283 kts | 356° |
| 2026-04-20 13:11 | 24.08687 | -15.87590 | 10528 ft | 283 kts | 356° |
| 2026-04-20 13:11 | 24.10639 | -15.87544 | 10995 ft | 283 kts | 356° |
| 2026-04-20 13:12 | 24.12608 | -15.87498 | 11474 ft | 283 kts | 356° |
| 2026-04-20 13:12 | 24.14578 | -15.87452 | 11965 ft | 282 kts | 356° |
| 2026-04-20 13:12 | 24.16542 | -15.87407 | 12464 ft | 282 kts | 356° |
| 2026-04-20 13:12 | 24.18498 | -15.87365 | 12966 ft | 281 kts | 356° |
| 2026-04-20 13:13 | 24.20449 | -15.87326 | 13467 ft | 280 kts | 356° |
| 2026-04-20 13:13 | 24.22423 | -15.87292 | 13749 ft | 288 kts | 356° |
| 2026-04-20 13:13 | 24.24464 | -15.87262 | 13869 ft | 299 kts | 356° |
| 2026-04-20 13:13 | 24.26581 | -15.87238 | 13930 ft | 308 kts | 356° |
| 2026-04-20 13:14 | 24.28741 | -15.87217 | 13962 ft | 312 kts | 356° |
| 2026-04-20 13:14 | 24.30901 | -15.87198 | 13964 ft | 317 kts | 356° |
| 2026-04-20 13:14 | 24.33120 | -15.87182 | 13973 ft | 320 kts | 356° |
| 2026-04-20 13:14 | 24.35350 | -15.87165 | 13973 ft | 321 kts | 356° |
| 2026-04-20 13:15 | 24.37588 | -15.87149 | 13976 ft | 322 kts | 356° |
| 2026-04-20 13:15 | 24.39832 | -15.87133 | 13978 ft | 322 kts | 356° |
| 2026-04-20 13:15 | 24.42076 | -15.87117 | 13978 ft | 323 kts | 356° |
| 2026-04-20 13:15 | 24.44318 | -15.87102 | 13977 ft | 322 kts | 356° |
| 2026-04-20 13:16 | 24.46553 | -15.87087 | 13980 ft | 321 kts | 356° |
| 2026-04-20 13:16 | 24.50805 | -15.87059 | 13983 ft | 320 kts | 356° |
| 2026-04-20 13:16 | 24.62168 | -15.87004 | 13978 ft | 318 kts | 356° |
| 2026-04-20 13:16 | 24.71003 | -15.86962 | 13981 ft | 317 kts | 356° |
| 2026-04-20 13:17 | 24.79849 | -15.86918 | 13986 ft | 317 kts | 356° |
| 2026-04-20 13:17 | 24.88691 | -15.86887 | 13976 ft | 317 kts | 356° |
| 2026-04-20 13:17 | 24.97503 | -15.86855 | 13982 ft | 317 kts | 356° |
| 2026-04-20 13:17 | 25.06202 | -15.86822 | 13974 ft | 317 kts | 356° |
| 2026-04-20 13:18 | 25.15031 | -15.86801 | 13976 ft | 317 kts | 356° |
| 2026-04-20 13:18 | 25.23869 | -15.86793 | 13975 ft | 317 kts | 356° |
| 2026-04-20 13:18 | 25.34958 | -15.86774 | 13975 ft | 317 kts | 356° |
| 2026-04-20 13:18 | 25.43776 | -15.86768 | 13978 ft | 317 kts | 356° |
| 2026-04-20 13:19 | 25.52602 | -15.86773 | 13974 ft | 316 kts | 356° |
| 2026-04-20 13:19 | 25.61411 | -15.86774 | 13972 ft | 316 kts | 356° |
| 2026-04-20 13:19 | 25.70227 | -15.86773 | 13976 ft | 316 kts | 356° |
| 2026-04-20 13:19 | 25.79027 | -15.86777 | 13970 ft | 316 kts | 356° |
| 2026-04-20 13:20 | 25.87817 | -15.86784 | 13967 ft | 315 kts | 356° |
| 2026-04-20 13:20 | 25.96579 | -15.86784 | 13967 ft | 315 kts | 356° |
| 2026-04-20 13:20 | 26.05361 | -15.86783 | 13968 ft | 315 kts | 356° |
| 2026-04-20 13:20 | 26.14024 | -15.86785 | 13965 ft | 315 kts | 356° |
| 2026-04-20 13:21 | 26.22801 | -15.86785 | 13961 ft | 315 kts | 356° |
| 2026-04-20 13:21 | 26.31586 | -15.86788 | 13965 ft | 316 kts | 356° |
| 2026-04-20 13:21 | 26.40367 | -15.86802 | 13964 ft | 316 kts | 356° |
| 2026-04-20 13:21 | 26.49153 | -15.86817 | 13959 ft | 316 kts | 356° |
| 2026-04-20 13:22 | 26.57943 | -15.86833 | 13966 ft | 316 kts | 356° |
| 2026-04-20 13:22 | 26.66733 | -15.86843 | 13959 ft | 316 kts | 356° |
| 2026-04-20 13:22 | 26.75531 | -15.86852 | 13957 ft | 316 kts | 356° |
| 2026-04-20 13:22 | 26.84335 | -15.86859 | 13961 ft | 316 kts | 356° |
| 2026-04-20 13:23 | 26.93138 | -15.86861 | 13946 ft | 316 kts | 356° |
| 2026-04-20 13:23 | 27.01935 | -15.86858 | 13948 ft | 316 kts | 356° |
| 2026-04-20 13:23 | 27.04414 | -15.86858 | 13950 ft | 317 kts | 356° |
| 2026-04-20 13:23 | 27.06620 | -15.86858 | 13949 ft | 317 kts | 356° |
| 2026-04-20 13:24 | 27.08824 | -15.86858 | 13951 ft | 317 kts | 356° |
| 2026-04-20 13:24 | 27.11027 | -15.86816 | 13880 ft | 319 kts | 1° |
| 2026-04-20 13:24 | 27.13182 | -15.85994 | 13361 ft | 339 kts | 32° |
| 2026-04-20 13:24 | 27.15035 | -15.84299 | 12856 ft | 348 kts | 41° |
| 2026-04-20 13:25 | 27.16871 | -15.82497 | 12360 ft | 353 kts | 41° |
| 2026-04-20 13:25 | 27.18738 | -15.80686 | 11864 ft | 356 kts | 41° |
| 2026-04-20 13:25 | 27.20623 | -15.78856 | 11374 ft | 358 kts | 41° |
| 2026-04-20 13:25 | 27.22505 | -15.77026 | 10890 ft | 358 kts | 41° |
| 2026-04-20 13:26 | 27.24374 | -15.75214 | 10417 ft | 359 kts | 41° |
| 2026-04-20 13:26 | 27.26268 | -15.73387 | 9952 ft | 359 kts | 41° |
| 2026-04-20 13:26 | 27.28170 | -15.71562 | 9452 ft | 358 kts | 41° |
| 2026-04-20 13:26 | 27.30063 | -15.69748 | 8943 ft | 357 kts | 41° |
| 2026-04-20 13:27 | 27.31946 | -15.67941 | 8448 ft | 355 kts | 41° |
| 2026-04-20 13:27 | 27.33818 | -15.66145 | 7954 ft | 352 kts | 41° |
| 2026-04-20 13:27 | 27.35671 | -15.64358 | 7479 ft | 350 kts | 41° |
| 2026-04-20 13:27 | 27.37515 | -15.62601 | 7190 ft | 344 kts | 41° |
| 2026-04-20 13:28 | 27.39332 | -15.60896 | 7061 ft | 336 kts | 41° |
| 2026-04-20 13:28 | 27.41116 | -15.59235 | 6998 ft | 330 kts | 41° |
| 2026-04-20 13:28 | 27.42871 | -15.57603 | 6968 ft | 325 kts | 41° |
| 2026-04-20 13:28 | 27.44603 | -15.55991 | 6953 ft | 322 kts | 41° |
| 2026-04-20 13:29 | 27.46323 | -15.54392 | 6945 ft | 319 kts | 41° |
| 2026-04-20 13:29 | 27.48031 | -15.52807 | 6945 ft | 318 kts | 41° |
| 2026-04-20 13:29 | 27.49712 | -15.51246 | 6945 ft | 317 kts | 41° |
| 2026-04-20 13:29 | 27.51314 | -15.49767 | 6944 ft | 316 kts | 41° |
| 2026-04-20 13:30 | 27.51499 | -15.49596 | 6943 ft | 316 kts | 41° |
| 2026-04-20 13:31 | 27.52049 | -15.49089 | 6837 ft | 319 kts | 41° |
| 2026-04-20 13:31 | 27.53802 | -15.47458 | 6360 ft | 332 kts | 41° |
| 2026-04-20 13:32 | 27.55596 | -15.45785 | 5867 ft | 337 kts | 41° |
| 2026-04-20 13:32 | 27.57385 | -15.44110 | 5382 ft | 340 kts | 41° |
| 2026-04-20 13:32 | 27.59199 | -15.42403 | 4901 ft | 340 kts | 41° |
| 2026-04-20 13:32 | 27.61009 | -15.40692 | 4439 ft | 338 kts | 41° |
| 2026-04-20 13:33 | 27.62797 | -15.38977 | 3942 ft | 336 kts | 41° |
| 2026-04-20 13:33 | 27.64556 | -15.37262 | 3472 ft | 332 kts | 41° |
| 2026-04-20 13:33 | 27.66267 | -15.35555 | 3221 ft | 323 kts | 41° |
| 2026-04-20 13:33 | 27.67923 | -15.33891 | 3103 ft | 314 kts | 41° |
| 2026-04-20 13:34 | 27.69552 | -15.32636 | 3021 ft | 305 kts | 21° |
| 2026-04-20 13:34 | 27.71600 | -15.32366 | 2953 ft | 295 kts | 346° |
| 2026-04-20 13:34 | 27.72962 | -15.32901 | 2911 ft | 291 kts | 332° |
| 2026-04-20 13:34 | 27.74746 | -15.33945 | 2845 ft | 288 kts | 329° |
| 2026-04-20 13:35 | 27.76493 | -15.35037 | 2779 ft | 286 kts | 328° |
| 2026-04-20 13:35 | 27.78161 | -15.36101 | 2482 ft | 267 kts | 328° |
| 2026-04-20 13:35 | 27.79730 | -15.37140 | 1775 ft | 250 kts | 329° |
| 2026-04-20 13:35 | 27.81163 | -15.38133 | 824 ft | 235 kts | 329° |
| 2026-04-20 13:36 | 27.82527 | -15.39044 | 327 ft | 212 kts | 332° |
| 2026-04-20 13:36 | 27.83698 | -15.39816 | 369 ft | 183 kts | 332° |
| 2026-04-20 13:36 | 27.84794 | -15.40451 | 548 ft | 171 kts | 338° |
| 2026-04-20 13:36 | 27.85926 | -15.40629 | 703 ft | 166 kts | 6° |
| 2026-04-20 13:37 | 27.87070 | -15.40381 | 657 ft | 170 kts | 14° |
| 2026-04-20 13:37 | 27.88206 | -15.40100 | 660 ft | 157 kts | 14° |
| 2026-04-20 13:37 | 27.89224 | -15.39828 | 667 ft | 147 kts | 15° |
| 2026-04-20 13:37 | 27.90210 | -15.39574 | 625 ft | 144 kts | 14° |
| 2026-04-20 13:38 | 27.91118 | -15.39312 | 332 ft | 121 kts | 19° |
| 2026-04-20 13:38 | 27.91902 | -15.39001 | 117 ft | 117 kts | 24° |
| 2026-04-20 13:38 | 27.92589 | -15.38693 | 58 ft | 88 kts | 21° |
| 2026-04-20 13:38 | 27.93030 | -15.38495 | 52 ft | 37 kts | 24° |
| 2026-04-20 13:39 | 27.93212 | -15.38353 | 51 ft | 34 kts | 37° |
| 2026-04-20 13:39 | 27.93411 | -15.38194 | 49 ft | 35 kts | 22° |
| 2026-04-20 13:39 | 27.93658 | -15.38087 | 45 ft | 41 kts | 22° |
| 2026-04-20 13:39 | 27.93718 | -15.37979 | 41 ft | 17 kts | 115° |
| 2026-04-20 13:40 | 27.93702 | -15.37863 | 41 ft | 11 kts | 26° |
| 2026-04-20 13:40 | 27.93719 | -15.37855 | 43 ft | 0 kts | 21° |